Aérodrome :
LOGIN :

S'inscrire | Disclaimer

   EN    FR    IT 

 










Légende :    VFR   VFR Marginal   IFR   IFR Intensif   IFR Très Intensif
Visi : 
Plafond : 
>= 8 km
>= 3000ft
5 à 8 km
1000 à 3000 ft
1500m à 5 km
500 à 1000 ft
800 à 1500m
200 à 500 ft
< 800m
< 200 ft
Symboles :   Orages  Brouillard  Fortes neiges  Fortes précipitations  Vent > 20 kt
SIGMETs :   Divers  Orages  Givrage  Turbulence  Onde Orograph.  Cendres Volcan.







- Altitude de l'aérodrome : 291 ft
- Code IATA : ORY
- Voir les cartes d'approche


LFPO - Paris-Orly

DERNIER METAR :
  • 190230Z 23008KT CAVOK 20/16 Q1007 NOSIG

METARs EXPIRÉS :
  • 190200Z 22006KT CAVOK 20/16 Q1007 NOSIG
  • 190130Z 20004KT 170V240 CAVOK 20/17 Q1007 NOSIG
  • 190100Z 20005KT CAVOK 20/17 Q1007 NOSIG
  • 190030Z 18003KT 130V240 CAVOK 20/17 Q1006 NOSIG

TAF TAF LFPO
Valide du 19 à 00h jusqu'au 20 à 06h UTC


182300Z 1900/2006 11007KT CAVOK
BECMG 1900/1903 22008KT
TEMPO 1902/1910 22010G20KT 4000 SHRA BKN030TCU
PROB30
TEMPO 1902/1905 22015G28KT 2500 -TSRA BKN035CB
TEMPO 1914/2001 22015G25KT 4000 SHRA BKN040TCU
PROB30
TEMPO 1915/1918 22015G28KT 2500 -TSRA BKN035CB
BECMG 2002/2005 BKN035
ATIS : +33 1 49 75 65 80
Pas de NOTAMs connus pour ce terrain.
4 SIGMETs publiés pour la FIR Paris (LFFF) :
 
Annulation du SIGMET 1 
LFFF SIGMET 4 VALID 190220/190300 LFPW
LFFF PARIS FIR/UIR CNL SIGMET 1 190100/190300=
Orages noyés dans la masse
LFFF SIGMET 3 VALID 190215/190415 LFPW
LFFF PARIS FIR/UIR EMBD TS OBS AT 0200Z WI N5000 E00000 - N5115 E00200 - N5030 E00330 - N4915 E00245 - N4945 E00045 - N5000 E00000 TOP FL330 MOV NE 25KT NC=
Orages noyés dans la masse
LFFF SIGMET 2 VALID 190145/190345 LFPW
LFFF PARIS FIR/UIR EMBD TS OBS AT 0130Z WI N4645 E00245 - N4715 E00200 - N4715 E00045 - N4815 E00115 - N4715 E00245 - N4645 E00245 TOP FL360 MOV NE 25KT NC=
SIGMET 1  ANNULÉ :
Orages fréquents avec grêle
LFFF SIGMET 1 VALID 190100/190300 LFPW
LFFF PARIS FIR/UIR FRQ TSGR FCST WI N5000 W00015 - N5115 E00200 - N5100 E00215 - N5045 E00230 - N4915 E00030 - N5000 W00015 TOP FL330 MOV NE 25KT NC=



MET'MAP, la Météo Aéronautique d'un coup d'oeil ! - Copyright ORBIFLY Décembre 2007 - Disclaimer

ORBIFLY MET'MAP TEAM :

Programmation & Développement : Alexandra Zaïnal
Conception & Développement : Baudouin d'Aumeries
Co-Programmation & Développement : Marc-Olivier Méhu
Soutien technique & logistique : Manuel Goepfert

Contact : metmap@orbifly.com




SOURCES & CREDITS :

   NOAA